Andoya, Norway

1:05 PM CEST on September 23, 2014 (GMT +0200)
Andoya Air Base | Change Station
CLOSE
Current Station
Airport
Location: Andoya,
Elevation: 43 ft
Nearby Weather Stations

Elev 43 ft 69.29 °N, 16.14 °E | Updated 15 minutes ago

Partly Cloudy
Partly Cloudy
43 °F
Feels Like 37 °F
N
12
Wind Variable Wind from East

Today
High -- | Low -- °F
--% Chance of Precip.
Yesterday
High -- | Low -- °F
Precip. -- in
6:38 AM 6:54 PM
Waning Crescent, 1% visible
Pressure 30.09 in
Visibility 6.2 miles
Clouds Few 3000 ft
Windchill 37 °F
Dew Point 27 °F
Humidity 53%
Rainfall 0.00 in
Snow Depth Not available.
UV 1 out of 12
Pollen Not available.
Air Quality Not available.
Flu Activity Not available.
METAR ENAN 231050Z 10010KT 9999 FEW030 06/M03 Q1019 NOSIG

More Conditions Fewer Conditions

Pressure 30.09 in
Visibility 6.2 miles
Clouds Few 3000 ft
Windchill 37 °F
Dew Point 27 °F
Humidity 53%
Rainfall 0.00 in
Snow Depth Not available.
UV 1 out of 12
Pollen Not available.
Air Quality Not available.
Flu Activity Not available.
METAR ENAN 231050Z 10010KT 9999 FEW030 06/M03 Q1019 NOSIG

More Conditions Fewer Conditions

10-Day Weather Forecast

Almanac

Astronomy

Sep. 23, 2014 Rise Set
Actual Time 6:38 AM CEST 6:54 PM CEST
Civil Twilight 5:39 AM CEST 7:53 PM CEST
Nautical Twilight 4:23 AM CEST 9:08 PM CEST
Astronomical Twilight 2:43 AM CEST 10:45 PM CEST
Moon 5:34 AM CEST 6:22 PM CEST
Length of Visible Light 14h 14m
Length of Day
12h 15m
Tomorrow will be 8m 14s shorter.
Waning Crescent, 1% of the Moon is Illuminated
Today
Waning Crescent
Sep 24
New
Oct 1
First Quarter
Oct 8
Full
Oct 15
Last Quarter

Yesterday's Extremes

Country Highs Country Lows

Community

WunderPhotos

Upload Photos

1,755,645 photos uploaded!

Nearby

Snow Depth

Not available.

Earthquake Activity

City Distance Mag. Time & Date
No recent earthquake activity has been reported nearby.
Minimum magnitude displayed is 2.5.

Coastal Water Temperatures

Place Temperature
No Stations Reporting

Nearby Weather Stations